sensor_id;sensor_type;location;lat;lon;timestamp;P1;durP1;ratioP1;P2;durP2;ratioP2
63346;SDS011;49472;49.880;8.650;2023-06-22T00:00:52;22.17;;;20.40;;
63346;SDS011;49472;49.880;8.650;2023-06-22T00:03:18;23.25;;;21.15;;
63346;SDS011;49472;49.880;8.650;2023-06-22T00:05:44;22.20;;;20.35;;
63346;SDS011;49472;49.880;8.650;2023-06-22T00:08:11;22.05;;;20.45;;
63346;SDS011;49472;49.880;8.650;2023-06-22T00:10:36;23.13;;;21.42;;
63346;SDS011;49472;49.880;8.650;2023-06-22T00:13:01;23.60;;;21.42;;
63346;SDS011;49472;49.880;8.650;2023-06-22T00:15:27;22.85;;;20.88;;
63346;SDS011;49472;49.880;8.650;2023-06-22T00:17:52;21.58;;;19.95;;
63346;SDS011;49472;49.880;8.650;2023-06-22T00:20:18;24.23;;;21.98;;
63346;SDS011;49472;49.880;8.650;2023-06-22T00:22:46;22.73;;;21.08;;
63346;SDS011;49472;49.880;8.650;2023-06-22T00:25:12;23.08;;;21.15;;
63346;SDS011;49472;49.880;8.650;2023-06-22T00:27:38;22.95;;;20.92;;
63346;SDS011;49472;49.880;8.650;2023-06-22T00:30:03;22.65;;;20.85;;
63346;SDS011;49472;49.880;8.650;2023-06-22T00:32:29;22.60;;;20.80;;
63346;SDS011;49472;49.880;8.650;2023-06-22T00:34:54;22.83;;;20.50;;
63346;SDS011;49472;49.880;8.650;2023-06-22T00:37:19;23.67;;;20.77;;
63346;SDS011;49472;49.880;8.650;2023-06-22T00:39:51;23.52;;;21.65;;
63346;SDS011;49472;49.880;8.650;2023-06-22T00:42:16;22.88;;;20.95;;
63346;SDS011;49472;49.880;8.650;2023-06-22T00:44:42;23.05;;;21.20;;
63346;SDS011;49472;49.880;8.650;2023-06-22T00:47:07;24.27;;;22.27;;
63346;SDS011;49472;49.880;8.650;2023-06-22T00:49:32;24.60;;;22.30;;
63346;SDS011;49472;49.880;8.650;2023-06-22T00:51:58;24.85;;;22.38;;
63346;SDS011;49472;49.880;8.650;2023-06-22T00:54:24;23.40;;;21.50;;
63346;SDS011;49472;49.880;8.650;2023-06-22T00:56:58;24.55;;;22.65;;
63346;SDS011;49472;49.880;8.650;2023-06-22T00:59:24;23.52;;;21.67;;
63346;SDS011;49472;49.880;8.650;2023-06-22T01:01:51;24.13;;;21.80;;
63346;SDS011;49472;49.880;8.650;2023-06-22T01:04:16;27.88;;;23.55;;
63346;SDS011;49472;49.880;8.650;2023-06-22T01:06:45;23.95;;;21.80;;
63346;SDS011;49472;49.880;8.650;2023-06-22T01:09:25;24.25;;;21.90;;
63346;SDS011;49472;49.880;8.650;2023-06-22T01:12:04;23.20;;;21.20;;
63346;SDS011;49472;49.880;8.650;2023-06-22T01:17:12;24.10;;;21.70;;
63346;SDS011;49472;49.880;8.650;2023-06-22T01:19:45;25.27;;;21.02;;
63346;SDS011;49472;49.880;8.650;2023-06-22T01:22:14;21.65;;;19.95;;
63346;SDS011;49472;49.880;8.650;2023-06-22T01:24:45;22.95;;;20.73;;
63346;SDS011;49472;49.880;8.650;2023-06-22T01:30:18;22.77;;;20.77;;
63346;SDS011;49472;49.880;8.650;2023-06-22T01:32:44;36.50;;;22.35;;
63346;SDS011;49472;49.880;8.650;2023-06-22T01:35:10;20.50;;;18.50;;
63346;SDS011;49472;49.880;8.650;2023-06-22T01:37:37;19.63;;;17.73;;
63346;SDS011;49472;49.880;8.650;2023-06-22T01:40:04;21.42;;;19.40;;
63346;SDS011;49472;49.880;8.650;2023-06-22T01:42:31;23.00;;;20.90;;
63346;SDS011;49472;49.880;8.650;2023-06-22T01:44:57;20.95;;;19.15;;
63346;SDS011;49472;49.880;8.650;2023-06-22T01:47:24;23.13;;;20.92;;
63346;SDS011;49472;49.880;8.650;2023-06-22T01:49:50;24.27;;;21.63;;
63346;SDS011;49472;49.880;8.650;2023-06-22T01:52:19;22.85;;;20.85;;
63346;SDS011;49472;49.880;8.650;2023-06-22T01:54:46;24.05;;;21.52;;
63346;SDS011;49472;49.880;8.650;2023-06-22T01:57:11;24.17;;;21.98;;
63346;SDS011;49472;49.880;8.650;2023-06-22T01:59:37;22.98;;;20.98;;
63346;SDS011;49472;49.880;8.650;2023-06-22T02:02:10;23.38;;;21.13;;
63346;SDS011;49472;49.880;8.650;2023-06-22T02:05:22;25.67;;;22.23;;
63346;SDS011;49472;49.880;8.650;2023-06-22T02:07:32;23.73;;;21.33;;
63346;SDS011;49472;49.880;8.650;2023-06-22T02:10:02;22.38;;;20.35;;
63346;SDS011;49472;49.880;8.650;2023-06-22T02:12:32;24.50;;;22.25;;
63346;SDS011;49472;49.880;8.650;2023-06-22T02:14:59;23.88;;;21.45;;
63346;SDS011;49472;49.880;8.650;2023-06-22T02:17:26;24.50;;;22.02;;
63346;SDS011;49472;49.880;8.650;2023-06-22T02:19:51;24.10;;;21.83;;
63346;SDS011;49472;49.880;8.650;2023-06-22T02:22:17;25.05;;;22.50;;
63346;SDS011;49472;49.880;8.650;2023-06-22T02:24:43;21.52;;;19.58;;
63346;SDS011;49472;49.880;8.650;2023-06-22T02:27:08;24.10;;;21.50;;
63346;SDS011;49472;49.880;8.650;2023-06-22T02:29:33;23.40;;;21.33;;
63346;SDS011;49472;49.880;8.650;2023-06-22T02:31:59;27.88;;;21.83;;
63346;SDS011;49472;49.880;8.650;2023-06-22T02:34:24;23.73;;;21.35;;
63346;SDS011;49472;49.880;8.650;2023-06-22T02:36:50;23.52;;;21.33;;
63346;SDS011;49472;49.880;8.650;2023-06-22T02:39:19;23.30;;;21.35;;
63346;SDS011;49472;49.880;8.650;2023-06-22T02:41:49;23.20;;;21.00;;
63346;SDS011;49472;49.880;8.650;2023-06-22T02:44:15;24.30;;;21.95;;
63346;SDS011;49472;49.880;8.650;2023-06-22T02:46:41;26.77;;;21.83;;
63346;SDS011;49472;49.880;8.650;2023-06-22T02:49:07;23.70;;;21.20;;
63346;SDS011;49472;49.880;8.650;2023-06-22T02:51:33;23.20;;;20.38;;
63346;SDS011;49472;49.880;8.650;2023-06-22T02:54:01;23.95;;;21.58;;
63346;SDS011;49472;49.880;8.650;2023-06-22T02:56:28;24.02;;;21.55;;
63346;SDS011;49472;49.880;8.650;2023-06-22T02:58:55;24.00;;;21.65;;
63346;SDS011;49472;49.880;8.650;2023-06-22T03:01:25;23.27;;;21.02;;
63346;SDS011;49472;49.880;8.650;2023-06-22T03:03:52;23.00;;;20.98;;
63346;SDS011;49472;49.880;8.650;2023-06-22T03:06:18;24.00;;;21.95;;
63346;SDS011;49472;49.880;8.650;2023-06-22T03:08:49;24.52;;;22.13;;
63346;SDS011;49472;49.880;8.650;2023-06-22T03:11:17;23.08;;;21.02;;
63346;SDS011;49472;49.880;8.650;2023-06-22T03:13:42;23.00;;;21.17;;
63346;SDS011;49472;49.880;8.650;2023-06-22T03:16:08;23.10;;;20.55;;
63346;SDS011;49472;49.880;8.650;2023-06-22T03:18:33;23.70;;;21.30;;
63346;SDS011;49472;49.880;8.650;2023-06-22T03:20:59;24.83;;;22.55;;
63346;SDS011;49472;49.880;8.650;2023-06-22T03:23:25;23.23;;;21.23;;
63346;SDS011;49472;49.880;8.650;2023-06-22T03:25:50;22.55;;;20.33;;
63346;SDS011;49472;49.880;8.650;2023-06-22T03:28:15;23.23;;;21.33;;
63346;SDS011;49472;49.880;8.650;2023-06-22T03:30:41;24.02;;;21.75;;
63346;SDS011;49472;49.880;8.650;2023-06-22T03:33:06;23.00;;;20.80;;
63346;SDS011;49472;49.880;8.650;2023-06-22T03:35:31;26.00;;;21.80;;
63346;SDS011;49472;49.880;8.650;2023-06-22T03:37:57;22.77;;;20.38;;
63346;SDS011;49472;49.880;8.650;2023-06-22T03:40:22;23.73;;;21.65;;
63346;SDS011;49472;49.880;8.650;2023-06-22T03:42:48;24.10;;;21.75;;
63346;SDS011;49472;49.880;8.650;2023-06-22T03:45:13;23.38;;;21.27;;
63346;SDS011;49472;49.880;8.650;2023-06-22T03:47:38;23.30;;;21.35;;
63346;SDS011;49472;49.880;8.650;2023-06-22T03:50:04;23.38;;;21.20;;
63346;SDS011;49472;49.880;8.650;2023-06-22T03:52:30;24.33;;;22.05;;
63346;SDS011;49472;49.880;8.650;2023-06-22T03:54:56;25.30;;;22.77;;
63346;SDS011;49472;49.880;8.650;2023-06-22T03:57:21;24.13;;;22.13;;
63346;SDS011;49472;49.880;8.650;2023-06-22T03:59:47;24.27;;;22.17;;
63346;SDS011;49472;49.880;8.650;2023-06-22T04:02:12;25.52;;;22.88;;
63346;SDS011;49472;49.880;8.650;2023-06-22T04:04:37;24.73;;;22.42;;
63346;SDS011;49472;49.880;8.650;2023-06-22T04:07:04;24.52;;;21.92;;
63346;SDS011;49472;49.880;8.650;2023-06-22T04:09:29;24.25;;;22.02;;
63346;SDS011;49472;49.880;8.650;2023-06-22T04:11:55;26.73;;;21.33;;
63346;SDS011;49472;49.880;8.650;2023-06-22T04:14:20;25.77;;;23.13;;
63346;SDS011;49472;49.880;8.650;2023-06-22T04:16:45;25.50;;;22.58;;
63346;SDS011;49472;49.880;8.650;2023-06-22T04:19:10;24.13;;;22.02;;
63346;SDS011;49472;49.880;8.650;2023-06-22T04:21:41;24.60;;;22.08;;
63346;SDS011;49472;49.880;8.650;2023-06-22T04:24:06;25.40;;;23.02;;
63346;SDS011;49472;49.880;8.650;2023-06-22T04:26:32;23.63;;;21.63;;
63346;SDS011;49472;49.880;8.650;2023-06-22T04:29:02;23.38;;;21.27;;
63346;SDS011;49472;49.880;8.650;2023-06-22T04:31:31;24.00;;;21.77;;
63346;SDS011;49472;49.880;8.650;2023-06-22T04:33:57;23.63;;;21.60;;
63346;SDS011;49472;49.880;8.650;2023-06-22T04:36:34;23.50;;;21.60;;
63346;SDS011;49472;49.880;8.650;2023-06-22T04:39:08;23.95;;;21.85;;
63346;SDS011;49472;49.880;8.650;2023-06-22T04:41:35;23.15;;;20.95;;
63346;SDS011;49472;49.880;8.650;2023-06-22T04:44:07;24.02;;;21.80;;
63346;SDS011;49472;49.880;8.650;2023-06-22T04:46:35;24.77;;;22.48;;
63346;SDS011;49472;49.880;8.650;2023-06-22T04:51:40;23.00;;;21.00;;
63346;SDS011;49472;49.880;8.650;2023-06-22T04:54:07;23.58;;;21.67;;
63346;SDS011;49472;49.880;8.650;2023-06-22T04:56:33;24.98;;;22.70;;
63346;SDS011;49472;49.880;8.650;2023-06-22T04:58:59;26.20;;;23.70;;
63346;SDS011;49472;49.880;8.650;2023-06-22T05:01:25;28.02;;;22.85;;
63346;SDS011;49472;49.880;8.650;2023-06-22T05:03:51;25.63;;;23.02;;
63346;SDS011;49472;49.880;8.650;2023-06-22T05:06:20;24.08;;;22.10;;
63346;SDS011;49472;49.880;8.650;2023-06-22T05:08:54;25.13;;;22.90;;
63346;SDS011;49472;49.880;8.650;2023-06-22T05:11:27;25.42;;;22.95;;
63346;SDS011;49472;49.880;8.650;2023-06-22T05:13:53;25.27;;;22.73;;
63346;SDS011;49472;49.880;8.650;2023-06-22T05:16:19;25.58;;;23.27;;
63346;SDS011;49472;49.880;8.650;2023-06-22T05:18:49;24.75;;;22.55;;
63346;SDS011;49472;49.880;8.650;2023-06-22T05:21:16;25.58;;;22.98;;
63346;SDS011;49472;49.880;8.650;2023-06-22T05:23:41;25.73;;;23.17;;
63346;SDS011;49472;49.880;8.650;2023-06-22T05:26:06;23.88;;;21.88;;
63346;SDS011;49472;49.880;8.650;2023-06-22T05:28:34;24.20;;;22.00;;
63346;SDS011;49472;49.880;8.650;2023-06-22T05:30:59;24.25;;;22.02;;
63346;SDS011;49472;49.880;8.650;2023-06-22T05:33:25;24.30;;;22.17;;
63346;SDS011;49472;49.880;8.650;2023-06-22T05:35:50;23.50;;;21.25;;
63346;SDS011;49472;49.880;8.650;2023-06-22T05:38:15;26.02;;;22.55;;
63346;SDS011;49472;49.880;8.650;2023-06-22T05:40:41;27.95;;;22.00;;
63346;SDS011;49472;49.880;8.650;2023-06-22T05:43:06;23.45;;;21.20;;
63346;SDS011;49472;49.880;8.650;2023-06-22T05:45:31;24.13;;;21.90;;
63346;SDS011;49472;49.880;8.650;2023-06-22T05:47:56;24.48;;;22.27;;
63346;SDS011;49472;49.880;8.650;2023-06-22T05:50:22;26.02;;;23.65;;
63346;SDS011;49472;49.880;8.650;2023-06-22T05:52:47;22.40;;;20.50;;
63346;SDS011;49472;49.880;8.650;2023-06-22T05:55:12;25.13;;;22.38;;
63346;SDS011;49472;49.880;8.650;2023-06-22T05:57:38;23.73;;;21.65;;
63346;SDS011;49472;49.880;8.650;2023-06-22T06:00:03;24.10;;;22.00;;
63346;SDS011;49472;49.880;8.650;2023-06-22T06:02:33;23.85;;;21.80;;
63346;SDS011;49472;49.880;8.650;2023-06-22T06:04:58;22.60;;;20.33;;
63346;SDS011;49472;49.880;8.650;2023-06-22T06:07:24;22.65;;;20.60;;
63346;SDS011;49472;49.880;8.650;2023-06-22T06:09:49;22.50;;;20.60;;
63346;SDS011;49472;49.880;8.650;2023-06-22T06:12:14;23.45;;;21.38;;
63346;SDS011;49472;49.880;8.650;2023-06-22T06:14:40;22.95;;;20.73;;
63346;SDS011;49472;49.880;8.650;2023-06-22T06:17:05;26.80;;;20.63;;
63346;SDS011;49472;49.880;8.650;2023-06-22T06:19:30;22.90;;;20.67;;
63346;SDS011;49472;49.880;8.650;2023-06-22T06:21:55;21.70;;;19.90;;
63346;SDS011;49472;49.880;8.650;2023-06-22T06:24:21;21.70;;;19.83;;
63346;SDS011;49472;49.880;8.650;2023-06-22T06:26:46;21.35;;;19.55;;
63346;SDS011;49472;49.880;8.650;2023-06-22T06:29:12;22.58;;;20.65;;
63346;SDS011;49472;49.880;8.650;2023-06-22T06:31:37;19.73;;;18.23;;
63346;SDS011;49472;49.880;8.650;2023-06-22T06:34:02;22.13;;;20.25;;
63346;SDS011;49472;49.880;8.650;2023-06-22T06:36:28;22.83;;;20.83;;
63346;SDS011;49472;49.880;8.650;2023-06-22T06:38:53;22.45;;;20.40;;
63346;SDS011;49472;49.880;8.650;2023-06-22T06:41:40;22.00;;;19.70;;
63346;SDS011;49472;49.880;8.650;2023-06-22T06:44:05;21.45;;;19.58;;
63346;SDS011;49472;49.880;8.650;2023-06-22T06:46:49;22.33;;;20.27;;
63346;SDS011;49472;49.880;8.650;2023-06-22T06:49:23;23.50;;;21.30;;
63346;SDS011;49472;49.880;8.650;2023-06-22T06:51:48;21.38;;;19.48;;
63346;SDS011;49472;49.880;8.650;2023-06-22T06:54:16;21.38;;;19.40;;
63346;SDS011;49472;49.880;8.650;2023-06-22T06:56:45;22.75;;;20.80;;
63346;SDS011;49472;49.880;8.650;2023-06-22T06:59:13;21.88;;;19.98;;
63346;SDS011;49472;49.880;8.650;2023-06-22T07:01:40;22.17;;;20.35;;
63346;SDS011;49472;49.880;8.650;2023-06-22T07:07:00;22.77;;;20.77;;
63346;SDS011;49472;49.880;8.650;2023-06-22T07:09:42;22.55;;;20.67;;
63346;SDS011;49472;49.880;8.650;2023-06-22T07:12:24;22.67;;;20.60;;
63346;SDS011;49472;49.880;8.650;2023-06-22T07:14:51;22.48;;;20.67;;
63346;SDS011;49472;49.880;8.650;2023-06-22T07:17:17;21.08;;;19.38;;
63346;SDS011;49472;49.880;8.650;2023-06-22T07:19:42;22.98;;;20.80;;
63346;SDS011;49472;49.880;8.650;2023-06-22T07:22:08;21.55;;;19.70;;
63346;SDS011;49472;49.880;8.650;2023-06-22T07:24:33;21.67;;;19.52;;
63346;SDS011;49472;49.880;8.650;2023-06-22T07:26:58;23.35;;;21.30;;
63346;SDS011;49472;49.880;8.650;2023-06-22T07:29:24;24.20;;;22.00;;
63346;SDS011;49472;49.880;8.650;2023-06-22T07:31:50;23.80;;;21.70;;
63346;SDS011;49472;49.880;8.650;2023-06-22T07:34:16;26.45;;;21.35;;
63346;SDS011;49472;49.880;8.650;2023-06-22T07:36:41;22.75;;;20.75;;
63346;SDS011;49472;49.880;8.650;2023-06-22T07:39:07;23.42;;;21.35;;
63346;SDS011;49472;49.880;8.650;2023-06-22T07:41:32;23.98;;;21.92;;
63346;SDS011;49472;49.880;8.650;2023-06-22T07:43:58;22.45;;;20.75;;
63346;SDS011;49472;49.880;8.650;2023-06-22T07:46:23;24.30;;;22.10;;
63346;SDS011;49472;49.880;8.650;2023-06-22T07:48:48;23.58;;;21.67;;
63346;SDS011;49472;49.880;8.650;2023-06-22T07:51:15;25.38;;;22.98;;
63346;SDS011;49472;49.880;8.650;2023-06-22T07:56:37;24.17;;;21.75;;
63346;SDS011;49472;49.880;8.650;2023-06-22T07:59:02;23.42;;;21.42;;
63346;SDS011;49472;49.880;8.650;2023-06-22T08:01:28;26.30;;;21.42;;
63346;SDS011;49472;49.880;8.650;2023-06-22T08:03:54;24.52;;;21.95;;
63346;SDS011;49472;49.880;8.650;2023-06-22T08:06:19;24.75;;;22.45;;
63346;SDS011;49472;49.880;8.650;2023-06-22T08:08:44;22.15;;;20.45;;
63346;SDS011;49472;49.880;8.650;2023-06-22T08:11:12;23.23;;;21.48;;
63346;SDS011;49472;49.880;8.650;2023-06-22T08:13:38;24.60;;;22.08;;
63346;SDS011;49472;49.880;8.650;2023-06-22T08:16:03;24.95;;;22.85;;
63346;SDS011;49472;49.880;8.650;2023-06-22T08:18:29;23.58;;;21.70;;
63346;SDS011;49472;49.880;8.650;2023-06-22T08:20:54;23.38;;;21.58;;
63346;SDS011;49472;49.880;8.650;2023-06-22T08:23:20;24.58;;;22.48;;
63346;SDS011;49472;49.880;8.650;2023-06-22T08:25:45;23.73;;;21.73;;
63346;SDS011;49472;49.880;8.650;2023-06-22T08:28:10;23.80;;;21.77;;
63346;SDS011;49472;49.880;8.650;2023-06-22T08:30:36;23.77;;;21.67;;
63346;SDS011;49472;49.880;8.650;2023-06-22T08:33:01;22.55;;;20.75;;
63346;SDS011;49472;49.880;8.650;2023-06-22T08:35:26;24.50;;;22.23;;
63346;SDS011;49472;49.880;8.650;2023-06-22T08:37:52;25.23;;;21.90;;
63346;SDS011;49472;49.880;8.650;2023-06-22T08:40:19;22.98;;;20.80;;
63346;SDS011;49472;49.880;8.650;2023-06-22T08:42:45;23.92;;;21.92;;
63346;SDS011;49472;49.880;8.650;2023-06-22T08:45:11;23.73;;;21.92;;
63346;SDS011;49472;49.880;8.650;2023-06-22T08:47:37;23.80;;;21.90;;
63346;SDS011;49472;49.880;8.650;2023-06-22T08:50:03;22.83;;;20.90;;
63346;SDS011;49472;49.880;8.650;2023-06-22T08:52:29;23.65;;;21.48;;
63346;SDS011;49472;49.880;8.650;2023-06-22T08:54:55;24.90;;;22.55;;
63346;SDS011;49472;49.880;8.650;2023-06-22T08:57:20;24.05;;;21.55;;
63346;SDS011;49472;49.880;8.650;2023-06-22T08:59:46;23.00;;;20.98;;
63346;SDS011;49472;49.880;8.650;2023-06-22T09:02:11;22.23;;;20.58;;
63346;SDS011;49472;49.880;8.650;2023-06-22T09:04:37;23.92;;;21.70;;
63346;SDS011;49472;49.880;8.650;2023-06-22T09:07:02;23.15;;;21.08;;
63346;SDS011;49472;49.880;8.650;2023-06-22T09:09:28;24.45;;;22.30;;
63346;SDS011;49472;49.880;8.650;2023-06-22T09:11:53;23.13;;;21.17;;
63346;SDS011;49472;49.880;8.650;2023-06-22T09:14:19;22.95;;;21.08;;
63346;SDS011;49472;49.880;8.650;2023-06-22T09:16:44;22.38;;;20.33;;
63346;SDS011;49472;49.880;8.650;2023-06-22T09:19:09;23.52;;;21.58;;
63346;SDS011;49472;49.880;8.650;2023-06-22T09:21:35;21.83;;;20.02;;
63346;SDS011;49472;49.880;8.650;2023-06-22T09:24:01;23.27;;;21.13;;
63346;SDS011;49472;49.880;8.650;2023-06-22T09:26:26;22.73;;;20.77;;
63346;SDS011;49472;49.880;8.650;2023-06-22T09:28:52;22.35;;;20.50;;
63346;SDS011;49472;49.880;8.650;2023-06-22T09:31:17;22.63;;;20.77;;
63346;SDS011;49472;49.880;8.650;2023-06-22T09:33:42;21.80;;;19.92;;
63346;SDS011;49472;49.880;8.650;2023-06-22T09:36:08;20.77;;;19.13;;
63346;SDS011;49472;49.880;8.650;2023-06-22T09:38:37;22.88;;;20.65;;
63346;SDS011;49472;49.880;8.650;2023-06-22T09:41:03;22.70;;;20.80;;
63346;SDS011;49472;49.880;8.650;2023-06-22T09:43:29;20.58;;;19.25;;
63346;SDS011;49472;49.880;8.650;2023-06-22T09:45:56;21.52;;;19.63;;
63346;SDS011;49472;49.880;8.650;2023-06-22T09:48:21;21.65;;;19.77;;
63346;SDS011;49472;49.880;8.650;2023-06-22T09:50:47;21.73;;;20.02;;
63346;SDS011;49472;49.880;8.650;2023-06-22T09:53:12;21.02;;;19.33;;
63346;SDS011;49472;49.880;8.650;2023-06-22T09:55:38;21.67;;;19.83;;
63346;SDS011;49472;49.880;8.650;2023-06-22T09:58:03;21.95;;;19.45;;
63346;SDS011;49472;49.880;8.650;2023-06-22T10:00:28;27.23;;;21.38;;
63346;SDS011;49472;49.880;8.650;2023-06-22T10:02:53;24.38;;;21.42;;
63346;SDS011;49472;49.880;8.650;2023-06-22T10:05:20;20.80;;;19.15;;
63346;SDS011;49472;49.880;8.650;2023-06-22T10:07:46;21.58;;;19.92;;
63346;SDS011;49472;49.880;8.650;2023-06-22T10:10:11;20.77;;;19.17;;
63346;SDS011;49472;49.880;8.650;2023-06-22T10:12:41;21.33;;;19.55;;
63346;SDS011;49472;49.880;8.650;2023-06-22T10:15:11;21.83;;;19.95;;
63346;SDS011;49472;49.880;8.650;2023-06-22T10:17:36;20.20;;;18.60;;
63346;SDS011;49472;49.880;8.650;2023-06-22T10:20:02;21.70;;;19.77;;
63346;SDS011;49472;49.880;8.650;2023-06-22T10:22:36;21.15;;;19.25;;
63346;SDS011;49472;49.880;8.650;2023-06-22T10:25:03;22.10;;;20.02;;
63346;SDS011;49472;49.880;8.650;2023-06-22T10:27:28;21.90;;;20.10;;
63346;SDS011;49472;49.880;8.650;2023-06-22T10:29:53;21.75;;;19.85;;
63346;SDS011;49472;49.880;8.650;2023-06-22T10:32:19;22.25;;;20.25;;
63346;SDS011;49472;49.880;8.650;2023-06-22T10:34:44;20.25;;;18.83;;
63346;SDS011;49472;49.880;8.650;2023-06-22T10:37:09;21.27;;;19.25;;
63346;SDS011;49472;49.880;8.650;2023-06-22T10:39:34;20.60;;;19.00;;
63346;SDS011;49472;49.880;8.650;2023-06-22T10:42:00;20.58;;;19.00;;
63346;SDS011;49472;49.880;8.650;2023-06-22T10:44:25;22.25;;;19.55;;
63346;SDS011;49472;49.880;8.650;2023-06-22T10:46:50;21.25;;;19.75;;
63346;SDS011;49472;49.880;8.650;2023-06-22T10:49:16;20.23;;;18.58;;
63346;SDS011;49472;49.880;8.650;2023-06-22T10:51:41;24.50;;;19.48;;
63346;SDS011;49472;49.880;8.650;2023-06-22T10:54:06;20.60;;;18.75;;
63346;SDS011;49472;49.880;8.650;2023-06-22T10:56:32;21.92;;;19.35;;
63346;SDS011;49472;49.880;8.650;2023-06-22T10:58:58;22.23;;;20.10;;
63346;SDS011;49472;49.880;8.650;2023-06-22T11:01:24;20.92;;;18.60;;
63346;SDS011;49472;49.880;8.650;2023-06-22T11:03:49;19.95;;;18.42;;
63346;SDS011;49472;49.880;8.650;2023-06-22T11:06:14;19.85;;;18.17;;
63346;SDS011;49472;49.880;8.650;2023-06-22T11:08:40;21.20;;;19.40;;
63346;SDS011;49472;49.880;8.650;2023-06-22T11:11:09;22.15;;;19.38;;
63346;SDS011;49472;49.880;8.650;2023-06-22T11:13:34;21.80;;;19.65;;
63346;SDS011;49472;49.880;8.650;2023-06-22T11:15:59;19.98;;;18.02;;
63346;SDS011;49472;49.880;8.650;2023-06-22T11:18:25;19.83;;;18.05;;
63346;SDS011;49472;49.880;8.650;2023-06-22T11:20:50;20.90;;;18.80;;
63346;SDS011;49472;49.880;8.650;2023-06-22T11:23:15;20.15;;;18.33;;
63346;SDS011;49472;49.880;8.650;2023-06-22T11:25:40;21.27;;;19.20;;
63346;SDS011;49472;49.880;8.650;2023-06-22T11:28:07;19.95;;;18.10;;
63346;SDS011;49472;49.880;8.650;2023-06-22T11:30:33;21.50;;;19.58;;
63346;SDS011;49472;49.880;8.650;2023-06-22T11:32:59;19.95;;;18.25;;
63346;SDS011;49472;49.880;8.650;2023-06-22T11:35:24;20.25;;;18.52;;
63346;SDS011;49472;49.880;8.650;2023-06-22T11:37:50;20.23;;;18.45;;
63346;SDS011;49472;49.880;8.650;2023-06-22T11:40:15;19.65;;;18.08;;
63346;SDS011;49472;49.880;8.650;2023-06-22T11:42:42;21.25;;;19.20;;
63346;SDS011;49472;49.880;8.650;2023-06-22T11:45:08;20.77;;;19.08;;
63346;SDS011;49472;49.880;8.650;2023-06-22T11:47:33;19.95;;;18.40;;
63346;SDS011;49472;49.880;8.650;2023-06-22T11:49:59;19.58;;;18.08;;
63346;SDS011;49472;49.880;8.650;2023-06-22T11:52:24;20.48;;;18.50;;
63346;SDS011;49472;49.880;8.650;2023-06-22T11:54:49;19.20;;;17.35;;
63346;SDS011;49472;49.880;8.650;2023-06-22T11:57:15;19.67;;;17.80;;
63346;SDS011;49472;49.880;8.650;2023-06-22T11:59:40;19.23;;;17.42;;
63346;SDS011;49472;49.880;8.650;2023-06-22T12:02:05;18.00;;;16.70;;
63346;SDS011;49472;49.880;8.650;2023-06-22T12:04:32;21.48;;;17.80;;
63346;SDS011;49472;49.880;8.650;2023-06-22T12:06:58;22.33;;;17.45;;
63346;SDS011;49472;49.880;8.650;2023-06-22T12:09:23;19.35;;;17.40;;
63346;SDS011;49472;49.880;8.650;2023-06-22T12:11:48;18.92;;;17.48;;
63346;SDS011;49472;49.880;8.650;2023-06-22T12:14:14;18.08;;;16.77;;
63346;SDS011;49472;49.880;8.650;2023-06-22T12:16:39;18.10;;;16.42;;
63346;SDS011;49472;49.880;8.650;2023-06-22T12:19:04;18.20;;;16.50;;
63346;SDS011;49472;49.880;8.650;2023-06-22T12:21:30;17.33;;;15.73;;
63346;SDS011;49472;49.880;8.650;2023-06-22T12:23:55;22.60;;;16.40;;
63346;SDS011;49472;49.880;8.650;2023-06-22T12:26:21;18.98;;;15.88;;
63346;SDS011;49472;49.880;8.650;2023-06-22T12:28:47;16.63;;;15.25;;
63346;SDS011;49472;49.880;8.650;2023-06-22T12:31:12;18.90;;;15.82;;
63346;SDS011;49472;49.880;8.650;2023-06-22T12:33:38;16.80;;;15.30;;
63346;SDS011;49472;49.880;8.650;2023-06-22T12:36:03;18.23;;;16.35;;
63346;SDS011;49472;49.880;8.650;2023-06-22T12:38:30;16.50;;;15.18;;
63346;SDS011;49472;49.880;8.650;2023-06-22T12:40:55;17.45;;;15.80;;
63346;SDS011;49472;49.880;8.650;2023-06-22T12:43:20;19.55;;;15.82;;
63346;SDS011;49472;49.880;8.650;2023-06-22T12:45:45;18.40;;;16.83;;
63346;SDS011;49472;49.880;8.650;2023-06-22T12:48:11;16.77;;;15.38;;
63346;SDS011;49472;49.880;8.650;2023-06-22T12:50:37;16.60;;;14.90;;
63346;SDS011;49472;49.880;8.650;2023-06-22T12:53:03;17.88;;;15.13;;
63346;SDS011;49472;49.880;8.650;2023-06-22T12:55:29;19.88;;;15.90;;
63346;SDS011;49472;49.880;8.650;2023-06-22T12:57:55;17.48;;;15.65;;
63346;SDS011;49472;49.880;8.650;2023-06-22T13:00:20;17.92;;;14.95;;
63346;SDS011;49472;49.880;8.650;2023-06-22T13:02:46;17.80;;;16.13;;
63346;SDS011;49472;49.880;8.650;2023-06-22T13:05:11;16.75;;;15.35;;
63346;SDS011;49472;49.880;8.650;2023-06-22T13:07:36;16.00;;;14.73;;
63346;SDS011;49472;49.880;8.650;2023-06-22T13:10:02;16.02;;;14.75;;
63346;SDS011;49472;49.880;8.650;2023-06-22T13:12:28;15.75;;;14.38;;
63346;SDS011;49472;49.880;8.650;2023-06-22T13:14:53;18.17;;;15.45;;
63346;SDS011;49472;49.880;8.650;2023-06-22T13:17:18;20.70;;;14.63;;
63346;SDS011;49472;49.880;8.650;2023-06-22T13:19:44;15.50;;;13.93;;
63346;SDS011;49472;49.880;8.650;2023-06-22T13:22:31;14.95;;;13.45;;
63346;SDS011;49472;49.880;8.650;2023-06-22T13:25:04;15.30;;;13.45;;
63346;SDS011;49472;49.880;8.650;2023-06-22T13:27:31;14.32;;;13.05;;
63346;SDS011;49472;49.880;8.650;2023-06-22T13:29:56;14.73;;;12.85;;
63346;SDS011;49472;49.880;8.650;2023-06-22T13:32:21;22.02;;;13.55;;
63346;SDS011;49472;49.880;8.650;2023-06-22T13:34:47;14.75;;;12.50;;
63346;SDS011;49472;49.880;8.650;2023-06-22T13:37:12;15.73;;;13.05;;
63346;SDS011;49472;49.880;8.650;2023-06-22T13:39:37;17.52;;;12.85;;
63346;SDS011;49472;49.880;8.650;2023-06-22T13:42:03;17.20;;;12.35;;
63346;SDS011;49472;49.880;8.650;2023-06-22T13:44:28;14.13;;;12.93;;
63346;SDS011;49472;49.880;8.650;2023-06-22T13:46:57;19.27;;;12.77;;
63346;SDS011;49472;49.880;8.650;2023-06-22T13:49:22;17.98;;;12.52;;
63346;SDS011;49472;49.880;8.650;2023-06-22T13:51:48;14.27;;;12.43;;
63346;SDS011;49472;49.880;8.650;2023-06-22T13:54:14;17.65;;;13.40;;
63346;SDS011;49472;49.880;8.650;2023-06-22T13:56:39;14.93;;;12.30;;
63346;SDS011;49472;49.880;8.650;2023-06-22T13:59:04;16.17;;;11.82;;
63346;SDS011;49472;49.880;8.650;2023-06-22T14:01:31;13.48;;;11.90;;
63346;SDS011;49472;49.880;8.650;2023-06-22T14:03:57;13.40;;;12.20;;
63346;SDS011;49472;49.880;8.650;2023-06-22T14:06:22;19.13;;;11.80;;
63346;SDS011;49472;49.880;8.650;2023-06-22T14:08:47;15.07;;;11.75;;
63346;SDS011;49472;49.880;8.650;2023-06-22T14:11:13;13.27;;;12.02;;
63346;SDS011;49472;49.880;8.650;2023-06-22T14:13:38;13.60;;;11.63;;
63346;SDS011;49472;49.880;8.650;2023-06-22T14:16:06;15.88;;;11.40;;
63346;SDS011;49472;49.880;8.650;2023-06-22T14:18:31;15.38;;;11.20;;
63346;SDS011;49472;49.880;8.650;2023-06-22T14:20:56;16.25;;;11.25;;
63346;SDS011;49472;49.880;8.650;2023-06-22T14:23:22;15.88;;;11.13;;
63346;SDS011;49472;49.880;8.650;2023-06-22T14:25:47;15.40;;;10.48;;
63346;SDS011;49472;49.880;8.650;2023-06-22T14:28:12;20.13;;;11.27;;
63346;SDS011;49472;49.880;8.650;2023-06-22T14:30:38;16.63;;;11.32;;